sensor_id;sensor_type;location;lat;lon;timestamp;pressure;altitude;pressure_sealevel;temperature;humidity
5966;BME280;3009;43.224;27.976;2023-04-30T00:02:14;100086.16;;;9.56;64.47
5966;BME280;3009;43.224;27.976;2023-04-30T00:04:44;100085.66;;;9.54;64.80
5966;BME280;3009;43.224;27.976;2023-04-30T00:07:13;100081.13;;;9.54;64.76
5966;BME280;3009;43.224;27.976;2023-04-30T00:09:41;100081.28;;;9.58;64.83
5966;BME280;3009;43.224;27.976;2023-04-30T00:12:09;100077.00;;;9.57;64.90
5966;BME280;3009;43.224;27.976;2023-04-30T00:14:38;100083.66;;;9.60;64.94
5966;BME280;3009;43.224;27.976;2023-04-30T00:17:06;100084.44;;;9.60;64.95
5966;BME280;3009;43.224;27.976;2023-04-30T00:19:34;100087.47;;;9.67;64.50
5966;BME280;3009;43.224;27.976;2023-04-30T00:22:04;100085.09;;;9.66;64.39
5966;BME280;3009;43.224;27.976;2023-04-30T00:24:33;100081.75;;;9.60;64.75
5966;BME280;3009;43.224;27.976;2023-04-30T00:27:01;100078.91;;;9.56;64.78
5966;BME280;3009;43.224;27.976;2023-04-30T00:29:29;100080.31;;;9.54;65.25
5966;BME280;3009;43.224;27.976;2023-04-30T00:31:58;100082.16;;;9.45;65.64
5966;BME280;3009;43.224;27.976;2023-04-30T00:34:26;100083.88;;;9.40;65.74
5966;BME280;3009;43.224;27.976;2023-04-30T00:36:54;100080.22;;;9.36;66.02
5966;BME280;3009;43.224;27.976;2023-04-30T00:39:24;100083.38;;;9.38;66.10
5966;BME280;3009;43.224;27.976;2023-04-30T00:41:52;100073.47;;;9.39;65.79
5966;BME280;3009;43.224;27.976;2023-04-30T00:44:21;100074.94;;;9.45;65.47
5966;BME280;3009;43.224;27.976;2023-04-30T00:46:49;100073.03;;;9.46;65.56
5966;BME280;3009;43.224;27.976;2023-04-30T00:49:17;100068.81;;;9.53;65.23
5966;BME280;3009;43.224;27.976;2023-04-30T00:51:46;100075.91;;;9.58;64.87
5966;BME280;3009;43.224;27.976;2023-04-30T00:54:14;100073.41;;;9.53;65.20
5966;BME280;3009;43.224;27.976;2023-04-30T00:56:45;100068.38;;;9.60;64.98
5966;BME280;3009;43.224;27.976;2023-04-30T00:59:14;100070.88;;;9.56;64.97
5966;BME280;3009;43.224;27.976;2023-04-30T01:01:42;100073.09;;;9.54;65.25
5966;BME280;3009;43.224;27.976;2023-04-30T01:04:11;100070.22;;;9.51;65.60
5966;BME280;3009;43.224;27.976;2023-04-30T01:06:39;100073.19;;;9.49;65.77
5966;BME280;3009;43.224;27.976;2023-04-30T01:09:09;100066.41;;;9.43;65.93
5966;BME280;3009;43.224;27.976;2023-04-30T01:11:47;100073.19;;;9.40;66.18
5966;BME280;3009;43.224;27.976;2023-04-30T01:14:21;100067.63;;;9.37;66.38
5966;BME280;3009;43.224;27.976;2023-04-30T01:17:01;100071.69;;;9.34;66.66
5966;BME280;3009;43.224;27.976;2023-04-30T01:19:40;100069.53;;;9.36;66.67
5966;BME280;3009;43.224;27.976;2023-04-30T01:22:12;100068.41;;;9.37;66.83
5966;BME280;3009;43.224;27.976;2023-04-30T01:25:04;100065.94;;;9.41;66.70
5966;BME280;3009;43.224;27.976;2023-04-30T01:28:00;100067.84;;;9.40;66.43
5966;BME280;3009;43.224;27.976;2023-04-30T01:30:30;100063.13;;;9.46;66.28
5966;BME280;3009;43.224;27.976;2023-04-30T01:32:59;100067.22;;;9.44;66.40
5966;BME280;3009;43.224;27.976;2023-04-30T01:35:40;100062.03;;;9.47;66.18
5966;BME280;3009;43.224;27.976;2023-04-30T01:38:20;100064.84;;;9.42;66.55
5966;BME280;3009;43.224;27.976;2023-04-30T01:40:54;100065.00;;;9.46;66.42
5966;BME280;3009;43.224;27.976;2023-04-30T01:43:36;100063.13;;;9.46;66.31
5966;BME280;3009;43.224;27.976;2023-04-30T01:46:13;100055.41;;;9.45;66.40
5966;BME280;3009;43.224;27.976;2023-04-30T01:48:49;100058.56;;;9.47;66.41
5966;BME280;3009;43.224;27.976;2023-04-30T01:51:29;100052.25;;;9.43;66.50
5966;BME280;3009;43.224;27.976;2023-04-30T01:54:02;100054.44;;;9.40;66.46
5966;BME280;3009;43.224;27.976;2023-04-30T01:56:39;100053.84;;;9.44;66.22
5966;BME280;3009;43.224;27.976;2023-04-30T01:59:13;100064.03;;;9.42;66.16
5966;BME280;3009;43.224;27.976;2023-04-30T02:01:42;100060.38;;;9.37;66.31
5966;BME280;3009;43.224;27.976;2023-04-30T02:04:10;100067.94;;;9.35;66.30
5966;BME280;3009;43.224;27.976;2023-04-30T02:06:39;100055.97;;;9.33;66.28
5966;BME280;3009;43.224;27.976;2023-04-30T02:09:07;100055.19;;;9.32;66.06
5966;BME280;3009;43.224;27.976;2023-04-30T02:11:36;100052.97;;;9.34;65.79
5966;BME280;3009;43.224;27.976;2023-04-30T02:14:04;100048.91;;;9.37;64.89
5966;BME280;3009;43.224;27.976;2023-04-30T02:16:34;100055.53;;;9.39;64.19
5966;BME280;3009;43.224;27.976;2023-04-30T02:19:03;100043.38;;;9.33;64.34
5966;BME280;3009;43.224;27.976;2023-04-30T02:21:31;100045.75;;;9.35;63.77
5966;BME280;3009;43.224;27.976;2023-04-30T02:24:00;100051.88;;;9.35;63.72
5966;BME280;3009;43.224;27.976;2023-04-30T02:26:28;100049.97;;;9.27;64.10
5966;BME280;3009;43.224;27.976;2023-04-30T02:28:57;100051.38;;;9.25;63.88
5966;BME280;3009;43.224;27.976;2023-04-30T02:31:26;100051.97;;;9.21;63.77
5966;BME280;3009;43.224;27.976;2023-04-30T02:33:55;100047.41;;;9.22;64.07
5966;BME280;3009;43.224;27.976;2023-04-30T02:36:24;100048.03;;;9.19;63.59
5966;BME280;3009;43.224;27.976;2023-04-30T02:38:53;100052.59;;;9.18;63.77
5966;BME280;3009;43.224;27.976;2023-04-30T02:41:21;100051.00;;;9.17;63.74
5966;BME280;3009;43.224;27.976;2023-04-30T02:43:49;100044.69;;;9.13;64.06
5966;BME280;3009;43.224;27.976;2023-04-30T02:46:18;100049.88;;;9.10;65.07
5966;BME280;3009;43.224;27.976;2023-04-30T02:48:48;100045.91;;;9.07;64.99
5966;BME280;3009;43.224;27.976;2023-04-30T02:51:18;100046.41;;;9.09;65.10
5966;BME280;3009;43.224;27.976;2023-04-30T02:53:46;100047.31;;;9.04;65.38
5966;BME280;3009;43.224;27.976;2023-04-30T02:56:15;100053.16;;;9.07;65.04
5966;BME280;3009;43.224;27.976;2023-04-30T02:58:43;100048.56;;;9.07;64.66
5966;BME280;3009;43.224;27.976;2023-04-30T03:01:12;100054.22;;;9.05;64.74
5966;BME280;3009;43.224;27.976;2023-04-30T03:03:41;100054.22;;;9.05;64.54
5966;BME280;3009;43.224;27.976;2023-04-30T03:06:09;100050.00;;;9.04;64.27
5966;BME280;3009;43.224;27.976;2023-04-30T03:08:39;100058.81;;;9.05;64.29
5966;BME280;3009;43.224;27.976;2023-04-30T03:11:07;100056.59;;;9.07;64.25
5966;BME280;3009;43.224;27.976;2023-04-30T03:13:36;100047.78;;;9.07;64.42
5966;BME280;3009;43.224;27.976;2023-04-30T03:16:04;100058.19;;;9.08;64.12
5966;BME280;3009;43.224;27.976;2023-04-30T03:18:32;100050.47;;;9.07;64.20
5966;BME280;3009;43.224;27.976;2023-04-30T03:21:01;100056.00;;;9.10;63.61
5966;BME280;3009;43.224;27.976;2023-04-30T03:23:29;100057.63;;;9.20;63.18
5966;BME280;3009;43.224;27.976;2023-04-30T03:25:59;100052.75;;;9.22;62.93
5966;BME280;3009;43.224;27.976;2023-04-30T03:28:27;100050.81;;;9.36;62.16
5966;BME280;3009;43.224;27.976;2023-04-30T03:30:56;100054.97;;;10.00;59.96
5966;BME280;3009;43.224;27.976;2023-04-30T03:33:24;100056.97;;;10.70;56.84
5966;BME280;3009;43.224;27.976;2023-04-30T03:35:53;100056.69;;;11.27;54.14
5966;BME280;3009;43.224;27.976;2023-04-30T03:38:21;100058.19;;;11.55;52.61
5966;BME280;3009;43.224;27.976;2023-04-30T03:40:50;100058.63;;;11.65;51.88
5966;BME280;3009;43.224;27.976;2023-04-30T03:43:20;100054.06;;;11.66;51.60
5966;BME280;3009;43.224;27.976;2023-04-30T03:45:49;100059.34;;;12.13;49.87
5966;BME280;3009;43.224;27.976;2023-04-30T03:48:18;100061.22;;;12.21;49.63
5966;BME280;3009;43.224;27.976;2023-04-30T03:50:47;100058.53;;;12.21;49.09
5966;BME280;3009;43.224;27.976;2023-04-30T03:53:15;100060.06;;;11.63;50.29
5966;BME280;3009;43.224;27.976;2023-04-30T03:55:44;100060.22;;;11.19;50.97
5966;BME280;3009;43.224;27.976;2023-04-30T03:58:12;100063.44;;;11.51;49.84
5966;BME280;3009;43.224;27.976;2023-04-30T04:00:42;100068.69;;;12.58;47.35
5966;BME280;3009;43.224;27.976;2023-04-30T04:03:11;100070.25;;;13.47;44.25
5966;BME280;3009;43.224;27.976;2023-04-30T04:05:40;100072.94;;;13.59;43.23
5966;BME280;3009;43.224;27.976;2023-04-30T04:08:09;100068.91;;;13.90;42.53
5966;BME280;3009;43.224;27.976;2023-04-30T04:10:38;100066.41;;;14.34;41.42
5966;BME280;3009;43.224;27.976;2023-04-30T04:13:06;100069.88;;;14.35;41.50
5966;BME280;3009;43.224;27.976;2023-04-30T04:15:35;100077.34;;;14.95;40.07
5966;BME280;3009;43.224;27.976;2023-04-30T04:18:05;100076.59;;;15.10;39.47
5966;BME280;3009;43.224;27.976;2023-04-30T04:20:34;100077.66;;;15.21;38.54
5966;BME280;3009;43.224;27.976;2023-04-30T04:23:02;100074.47;;;14.87;39.33
5966;BME280;3009;43.224;27.976;2023-04-30T04:25:31;100081.66;;;14.83;39.11
5966;BME280;3009;43.224;27.976;2023-04-30T04:27:59;100083.19;;;15.57;37.88
5966;BME280;3009;43.224;27.976;2023-04-30T04:30:28;100086.22;;;16.03;36.91
5966;BME280;3009;43.224;27.976;2023-04-30T04:32:56;100082.66;;;15.99;36.28
5966;BME280;3009;43.224;27.976;2023-04-30T04:35:27;100086.16;;;16.35;35.55
5966;BME280;3009;43.224;27.976;2023-04-30T04:37:56;100097.03;;;16.03;35.75
5966;BME280;3009;43.224;27.976;2023-04-30T04:40:24;100087.72;;;16.75;35.29
5966;BME280;3009;43.224;27.976;2023-04-30T04:42:55;100084.97;;;16.72;35.21
5966;BME280;3009;43.224;27.976;2023-04-30T04:45:23;100082.88;;;16.84;34.76
5966;BME280;3009;43.224;27.976;2023-04-30T04:47:52;100069.94;;;17.86;32.52
5966;BME280;3009;43.224;27.976;2023-04-30T04:50:20;100073.84;;;17.62;33.03
5966;BME280;3009;43.224;27.976;2023-04-30T04:52:50;100077.19;;;18.63;31.36
5966;BME280;3009;43.224;27.976;2023-04-30T04:55:18;100081.97;;;19.52;29.76
5966;BME280;3009;43.224;27.976;2023-04-30T04:57:46;100088.97;;;19.49;29.96
5966;BME280;3009;43.224;27.976;2023-04-30T05:00:15;100079.38;;;18.19;31.65
5966;BME280;3009;43.224;27.976;2023-04-30T05:02:44;100089.19;;;18.92;30.71
5966;BME280;3009;43.224;27.976;2023-04-30T05:05:12;100089.47;;;19.62;29.17
5966;BME280;3009;43.224;27.976;2023-04-30T05:07:41;100085.38;;;19.41;29.67
5966;BME280;3009;43.224;27.976;2023-04-30T05:10:11;100087.59;;;20.29;28.72
5966;BME280;3009;43.224;27.976;2023-04-30T05:12:40;100094.09;;;20.10;29.27
5966;BME280;3009;43.224;27.976;2023-04-30T05:15:08;100092.50;;;20.82;27.76
5966;BME280;3009;43.224;27.976;2023-04-30T05:17:37;100095.34;;;21.33;26.57
5966;BME280;3009;43.224;27.976;2023-04-30T05:20:06;100095.38;;;21.69;26.08
5966;BME280;3009;43.224;27.976;2023-04-30T05:22:35;100099.28;;;20.36;27.62
5966;BME280;3009;43.224;27.976;2023-04-30T05:25:04;100097.66;;;21.23;26.17
5966;BME280;3009;43.224;27.976;2023-04-30T05:27:34;100099.50;;;20.76;26.48
5966;BME280;3009;43.224;27.976;2023-04-30T05:30:03;100096.13;;;21.30;26.36
5966;BME280;3009;43.224;27.976;2023-04-30T05:32:33;100098.09;;;21.51;25.46
5966;BME280;3009;43.224;27.976;2023-04-30T05:35:01;100104.19;;;20.79;25.88
5966;BME280;3009;43.224;27.976;2023-04-30T05:37:30;100105.47;;;21.47;25.57
5966;BME280;3009;43.224;27.976;2023-04-30T05:39:58;100105.06;;;22.17;24.32
5966;BME280;3009;43.224;27.976;2023-04-30T05:42:26;100098.44;;;21.24;25.81
5966;BME280;3009;43.224;27.976;2023-04-30T05:44:56;100099.97;;;21.03;26.28
5966;BME280;3009;43.224;27.976;2023-04-30T05:47:24;100096.91;;;21.91;25.12
5966;BME280;3009;43.224;27.976;2023-04-30T05:49:53;100096.56;;;21.71;25.26
5966;BME280;3009;43.224;27.976;2023-04-30T05:52:22;100097.63;;;22.21;24.93
5966;BME280;3009;43.224;27.976;2023-04-30T05:54:50;100099.47;;;22.63;24.07
5966;BME280;3009;43.224;27.976;2023-04-30T05:57:19;100104.63;;;22.43;23.58
5966;BME280;3009;43.224;27.976;2023-04-30T05:59:48;100106.56;;;23.28;22.97
5966;BME280;3009;43.224;27.976;2023-04-30T06:02:17;100101.88;;;23.28;22.62
5966;BME280;3009;43.224;27.976;2023-04-30T06:04:46;100103.84;;;22.36;24.51
5966;BME280;3009;43.224;27.976;2023-04-30T06:07:15;100108.25;;;21.54;25.77
5966;BME280;3009;43.224;27.976;2023-04-30T06:09:43;100112.31;;;22.70;24.43
5966;BME280;3009;43.224;27.976;2023-04-30T06:12:11;100118.66;;;24.24;21.78
5966;BME280;3009;43.224;27.976;2023-04-30T06:14:39;100117.00;;;22.77;22.92
5966;BME280;3009;43.224;27.976;2023-04-30T06:17:11;100114.50;;;23.67;22.84
5966;BME280;3009;43.224;27.976;2023-04-30T06:19:41;100117.53;;;23.24;22.00
5966;BME280;3009;43.224;27.976;2023-04-30T06:22:09;100118.69;;;23.23;22.82
5966;BME280;3009;43.224;27.976;2023-04-30T06:24:37;100122.47;;;22.73;24.21
5966;BME280;3009;43.224;27.976;2023-04-30T06:27:05;100113.31;;;23.16;23.40
5966;BME280;3009;43.224;27.976;2023-04-30T06:29:34;100121.44;;;24.21;20.97
5966;BME280;3009;43.224;27.976;2023-04-30T06:32:02;100120.53;;;24.31;20.98
5966;BME280;3009;43.224;27.976;2023-04-30T06:34:34;100121.75;;;24.65;20.76
5966;BME280;3009;43.224;27.976;2023-04-30T06:37:04;100119.97;;;23.67;22.00
5966;BME280;3009;43.224;27.976;2023-04-30T06:39:32;100117.88;;;22.48;22.79
5966;BME280;3009;43.224;27.976;2023-04-30T06:42:01;100114.09;;;21.70;23.78
5966;BME280;3009;43.224;27.976;2023-04-30T06:44:29;100122.03;;;23.49;22.28
5966;BME280;3009;43.224;27.976;2023-04-30T06:46:58;100117.69;;;23.59;20.55
5966;BME280;3009;43.224;27.976;2023-04-30T06:49:27;100127.06;;;23.58;21.32
5966;BME280;3009;43.224;27.976;2023-04-30T06:51:55;100125.72;;;22.36;22.99
5966;BME280;3009;43.224;27.976;2023-04-30T06:54:25;100127.78;;;23.09;21.81
5966;BME280;3009;43.224;27.976;2023-04-30T06:56:54;100117.19;;;21.87;23.00
5966;BME280;3009;43.224;27.976;2023-04-30T06:59:22;100123.00;;;22.32;22.06
5966;BME280;3009;43.224;27.976;2023-04-30T07:01:51;100120.31;;;21.67;22.59
5966;BME280;3009;43.224;27.976;2023-04-30T07:04:19;100132.69;;;21.07;23.56
5966;BME280;3009;43.224;27.976;2023-04-30T07:06:47;100123.81;;;21.93;22.45
5966;BME280;3009;43.224;27.976;2023-04-30T07:09:17;100129.25;;;21.35;23.64
5966;BME280;3009;43.224;27.976;2023-04-30T07:11:46;100128.06;;;22.41;23.00
5966;BME280;3009;43.224;27.976;2023-04-30T07:14:16;100127.31;;;22.01;22.93
5966;BME280;3009;43.224;27.976;2023-04-30T07:16:44;100125.94;;;22.85;22.11
5966;BME280;3009;43.224;27.976;2023-04-30T07:19:12;100126.19;;;23.15;21.04
5966;BME280;3009;43.224;27.976;2023-04-30T07:21:41;100127.66;;;21.34;23.83
5966;BME280;3009;43.224;27.976;2023-04-30T07:24:09;100124.06;;;22.71;22.72
5966;BME280;3009;43.224;27.976;2023-04-30T07:26:37;100132.38;;;22.35;23.35
5966;BME280;3009;43.224;27.976;2023-04-30T07:29:07;100127.75;;;20.43;26.01
5966;BME280;3009;43.224;27.976;2023-04-30T07:31:36;100133.78;;;20.14;26.57
5966;BME280;3009;43.224;27.976;2023-04-30T07:34:04;100131.53;;;20.27;25.65
5966;BME280;3009;43.224;27.976;2023-04-30T07:36:32;100130.41;;;21.41;25.32
5966;BME280;3009;43.224;27.976;2023-04-30T07:39:01;100139.06;;;20.56;26.50
5966;BME280;3009;43.224;27.976;2023-04-30T07:41:31;100138.72;;;19.53;27.85
5966;BME280;3009;43.224;27.976;2023-04-30T07:43:59;100144.06;;;19.46;28.49
5966;BME280;3009;43.224;27.976;2023-04-30T07:46:29;100128.97;;;18.47;29.71
5966;BME280;3009;43.224;27.976;2023-04-30T07:48:57;100121.53;;;17.67;31.77
5966;BME280;3009;43.224;27.976;2023-04-30T07:51:26;100129.78;;;17.51;32.71
5966;BME280;3009;43.224;27.976;2023-04-30T07:53:54;100120.22;;;17.34;33.47
5966;BME280;3009;43.224;27.976;2023-04-30T07:56:23;100119.63;;;17.44;33.37
5966;BME280;3009;43.224;27.976;2023-04-30T07:58:51;100122.38;;;17.48;32.86
5966;BME280;3009;43.224;27.976;2023-04-30T08:01:19;100115.50;;;17.31;32.44
5966;BME280;3009;43.224;27.976;2023-04-30T08:03:49;100114.41;;;17.12;33.86
5966;BME280;3009;43.224;27.976;2023-04-30T08:06:18;100129.50;;;17.56;33.78
5966;BME280;3009;43.224;27.976;2023-04-30T08:08:46;100130.22;;;17.76;33.36
5966;BME280;3009;43.224;27.976;2023-04-30T08:11:16;100127.00;;;17.70;32.85
5966;BME280;3009;43.224;27.976;2023-04-30T08:13:44;100121.56;;;17.90;33.50
5966;BME280;3009;43.224;27.976;2023-04-30T08:16:13;100124.41;;;18.01;33.84
5966;BME280;3009;43.224;27.976;2023-04-30T08:18:41;100119.84;;;17.82;34.10
5966;BME280;3009;43.224;27.976;2023-04-30T08:21:13;100116.78;;;17.83;33.66
5966;BME280;3009;43.224;27.976;2023-04-30T08:23:42;100105.56;;;17.85;33.98
5966;BME280;3009;43.224;27.976;2023-04-30T08:26:10;100117.13;;;18.05;33.50
5966;BME280;3009;43.224;27.976;2023-04-30T08:28:38;100110.56;;;17.83;33.82
5966;BME280;3009;43.224;27.976;2023-04-30T08:31:07;100119.06;;;18.04;33.91
5966;BME280;3009;43.224;27.976;2023-04-30T08:33:35;100097.00;;;17.83;34.25
5966;BME280;3009;43.224;27.976;2023-04-30T08:36:04;100113.91;;;18.22;34.95
5966;BME280;3009;43.224;27.976;2023-04-30T08:38:33;100109.66;;;18.55;34.24
5966;BME280;3009;43.224;27.976;2023-04-30T08:41:08;100109.97;;;18.20;34.00
5966;BME280;3009;43.224;27.976;2023-04-30T08:43:37;100104.25;;;17.75;34.89
5966;BME280;3009;43.224;27.976;2023-04-30T08:46:06;100095.63;;;17.93;35.07
5966;BME280;3009;43.224;27.976;2023-04-30T08:48:35;100103.00;;;18.49;35.14
5966;BME280;3009;43.224;27.976;2023-04-30T08:51:03;100108.78;;;18.78;34.29
5966;BME280;3009;43.224;27.976;2023-04-30T08:53:36;100114.53;;;18.73;34.07
5966;BME280;3009;43.224;27.976;2023-04-30T08:56:05;100097.06;;;18.40;34.07
5966;BME280;3009;43.224;27.976;2023-04-30T08:58:33;100105.69;;;18.46;34.73
5966;BME280;3009;43.224;27.976;2023-04-30T09:01:02;100104.09;;;18.45;34.16
5966;BME280;3009;43.224;27.976;2023-04-30T09:03:31;100103.59;;;18.66;34.16
5966;BME280;3009;43.224;27.976;2023-04-30T09:05:59;100104.44;;;18.39;33.58
5966;BME280;3009;43.224;27.976;2023-04-30T09:08:42;100092.75;;;18.35;33.92
5966;BME280;3009;43.224;27.976;2023-04-30T09:11:23;100094.94;;;18.56;34.30
5966;BME280;3009;43.224;27.976;2023-04-30T09:13:53;100089.81;;;18.82;34.26
5966;BME280;3009;43.224;27.976;2023-04-30T09:16:23;100093.91;;;18.65;33.27
5966;BME280;3009;43.224;27.976;2023-04-30T09:18:52;100088.31;;;18.54;33.08
5966;BME280;3009;43.224;27.976;2023-04-30T09:21:32;100078.72;;;18.60;33.37
5966;BME280;3009;43.224;27.976;2023-04-30T09:24:03;100081.28;;;18.19;33.63
5966;BME280;3009;43.224;27.976;2023-04-30T09:26:33;100082.34;;;18.41;32.73
5966;BME280;3009;43.224;27.976;2023-04-30T09:29:03;100087.13;;;18.51;33.44
5966;BME280;3009;43.224;27.976;2023-04-30T09:31:35;100082.50;;;18.55;32.80
5966;BME280;3009;43.224;27.976;2023-04-30T09:34:04;100078.72;;;18.60;33.34
5966;BME280;3009;43.224;27.976;2023-04-30T09:36:32;100080.00;;;18.39;32.79
5966;BME280;3009;43.224;27.976;2023-04-30T09:39:07;100071.28;;;18.27;32.89
5966;BME280;3009;43.224;27.976;2023-04-30T09:41:41;100065.97;;;18.34;33.39
5966;BME280;3009;43.224;27.976;2023-04-30T09:44:27;100070.75;;;18.44;33.08
5966;BME280;3009;43.224;27.976;2023-04-30T09:46:55;100068.72;;;18.68;33.36
5966;BME280;3009;43.224;27.976;2023-04-30T09:49:25;100065.75;;;18.80;34.50
5966;BME280;3009;43.224;27.976;2023-04-30T09:51:54;100064.41;;;18.63;34.03
5966;BME280;3009;43.224;27.976;2023-04-30T09:54:27;100069.94;;;19.08;33.95
5966;BME280;3009;43.224;27.976;2023-04-30T09:56:57;100074.63;;;19.11;32.94
5966;BME280;3009;43.224;27.976;2023-04-30T09:59:28;100063.91;;;18.88;32.04
5966;BME280;3009;43.224;27.976;2023-04-30T10:02:02;100067.97;;;18.71;32.93
5966;BME280;3009;43.224;27.976;2023-04-30T10:04:33;100060.91;;;18.97;32.85
5966;BME280;3009;43.224;27.976;2023-04-30T10:07:04;100066.44;;;19.04;32.67
5966;BME280;3009;43.224;27.976;2023-04-30T10:09:39;100069.13;;;19.48;32.85
5966;BME280;3009;43.224;27.976;2023-04-30T10:12:13;100062.88;;;19.44;32.51
5966;BME280;3009;43.224;27.976;2023-04-30T10:14:47;100069.50;;;19.43;31.69
5966;BME280;3009;43.224;27.976;2023-04-30T10:17:19;100061.59;;;19.27;31.65
5966;BME280;3009;43.224;27.976;2023-04-30T10:19:51;100080.81;;;19.08;31.98
5966;BME280;3009;43.224;27.976;2023-04-30T10:22:22;100076.53;;;19.07;31.75
5966;BME280;3009;43.224;27.976;2023-04-30T10:24:53;100067.97;;;19.05;32.18
5966;BME280;3009;43.224;27.976;2023-04-30T10:27:21;100064.47;;;19.04;31.63
5966;BME280;3009;43.224;27.976;2023-04-30T10:29:50;100060.75;;;19.23;32.38
5966;BME280;3009;43.224;27.976;2023-04-30T10:32:19;100067.63;;;19.51;32.36
5966;BME280;3009;43.224;27.976;2023-04-30T10:34:54;100074.63;;;19.11;32.80
5966;BME280;3009;43.224;27.976;2023-04-30T10:37:42;100058.19;;;18.97;33.40
5966;BME280;3009;43.224;27.976;2023-04-30T10:40:14;100059.00;;;19.01;33.73
5966;BME280;3009;43.224;27.976;2023-04-30T10:42:45;100061.59;;;19.27;33.59
5966;BME280;3009;43.224;27.976;2023-04-30T10:45:14;100068.25;;;19.34;32.42
5966;BME280;3009;43.224;27.976;2023-04-30T10:47:43;100065.16;;;18.94;32.66
5966;BME280;3009;43.224;27.976;2023-04-30T10:50:12;100060.31;;;18.80;33.44
5966;BME280;3009;43.224;27.976;2023-04-30T10:52:43;100060.25;;;19.07;33.18
5966;BME280;3009;43.224;27.976;2023-04-30T10:55:17;100061.66;;;19.35;32.53
5966;BME280;3009;43.224;27.976;2023-04-30T10:57:45;100063.00;;;19.55;31.76
5966;BME280;3009;43.224;27.976;2023-04-30T11:00:20;100055.44;;;19.34;31.03
5966;BME280;3009;43.224;27.976;2023-04-30T11:02:55;100056.97;;;19.35;31.74
5966;BME280;3009;43.224;27.976;2023-04-30T11:05:34;100056.63;;;18.95;32.41
5966;BME280;3009;43.224;27.976;2023-04-30T11:08:03;100047.75;;;18.65;33.04
5966;BME280;3009;43.224;27.976;2023-04-30T11:10:34;100048.00;;;18.86;33.05
5966;BME280;3009;43.224;27.976;2023-04-30T11:13:04;100055.06;;;18.94;33.27
5966;BME280;3009;43.224;27.976;2023-04-30T11:15:38;100051.09;;;19.26;32.76
5966;BME280;3009;43.224;27.976;2023-04-30T11:18:07;100066.34;;;19.41;32.10
5966;BME280;3009;43.224;27.976;2023-04-30T11:20:39;100055.44;;;19.34;31.57
5966;BME280;3009;43.224;27.976;2023-04-30T11:23:08;100062.63;;;19.16;32.04
5966;BME280;3009;43.224;27.976;2023-04-30T11:25:42;100060.41;;;19.25;32.03
5966;BME280;3009;43.224;27.976;2023-04-30T11:28:13;100064.72;;;19.29;32.47
5966;BME280;3009;43.224;27.976;2023-04-30T11:30:51;100058.19;;;19.38;32.30
5966;BME280;3009;43.224;27.976;2023-04-30T11:33:19;100055.47;;;19.41;31.92
5966;BME280;3009;43.224;27.976;2023-04-30T11:35:49;100064.84;;;19.44;31.50
5966;BME280;3009;43.224;27.976;2023-04-30T11:38:21;100050.72;;;19.27;32.26
5966;BME280;3009;43.224;27.976;2023-04-30T11:40:51;100051.56;;;19.35;32.11
5966;BME280;3009;43.224;27.976;2023-04-30T11:43:24;100055.06;;;19.84;32.23
5966;BME280;3009;43.224;27.976;2023-04-30T11:46:03;100064.38;;;19.83;31.25
5966;BME280;3009;43.224;27.976;2023-04-30T11:48:34;100050.31;;;19.74;31.51
5966;BME280;3009;43.224;27.976;2023-04-30T11:51:03;100045.38;;;19.90;30.82
5966;BME280;3009;43.224;27.976;2023-04-30T11:53:33;100041.97;;;20.00;31.36
5966;BME280;3009;43.224;27.976;2023-04-30T11:56:03;100050.88;;;19.97;31.23
5966;BME280;3009;43.224;27.976;2023-04-30T11:58:35;100050.94;;;20.08;31.43
5966;BME280;3009;43.224;27.976;2023-04-30T12:01:06;100063.91;;;19.25;35.77
5966;BME280;3009;43.224;27.976;2023-04-30T12:03:42;100070.06;;;18.51;42.04
5966;BME280;3009;43.224;27.976;2023-04-30T12:06:11;100061.25;;;18.27;43.97
5966;BME280;3009;43.224;27.976;2023-04-30T12:08:41;100060.16;;;18.05;45.25
5966;BME280;3009;43.224;27.976;2023-04-30T12:11:20;100057.63;;;17.66;46.96
5966;BME280;3009;43.224;27.976;2023-04-30T12:13:52;100065.25;;;17.83;48.89
5966;BME280;3009;43.224;27.976;2023-04-30T12:16:22;100064.28;;;17.45;51.99
5966;BME280;3009;43.224;27.976;2023-04-30T12:18:50;100063.28;;;17.57;54.83
5966;BME280;3009;43.224;27.976;2023-04-30T12:21:20;100067.88;;;17.30;55.10
5966;BME280;3009;43.224;27.976;2023-04-30T12:23:49;100061.22;;;17.04;51.85
5966;BME280;3009;43.224;27.976;2023-04-30T12:26:17;100071.66;;;17.02;53.39
5966;BME280;3009;43.224;27.976;2023-04-30T12:28:48;100065.50;;;17.05;55.24
5966;BME280;3009;43.224;27.976;2023-04-30T12:31:17;100058.59;;;16.49;58.26
5966;BME280;3009;43.224;27.976;2023-04-30T12:33:53;100067.66;;;16.76;58.60
5966;BME280;3009;43.224;27.976;2023-04-30T12:36:28;100072.94;;;16.89;55.43
5966;BME280;3009;43.224;27.976;2023-04-30T12:39:07;100080.13;;;16.81;56.40
5966;BME280;3009;43.224;27.976;2023-04-30T12:41:38;100076.13;;;16.36;59.27
5966;BME280;3009;43.224;27.976;2023-04-30T12:44:16;100066.91;;;16.21;55.59
5966;BME280;3009;43.224;27.976;2023-04-30T12:46:45;100059.75;;;15.93;54.80
5966;BME280;3009;43.224;27.976;2023-04-30T12:49:24;100062.44;;;15.61;52.87
5966;BME280;3009;43.224;27.976;2023-04-30T12:51:57;100061.44;;;16.01;51.14
5966;BME280;3009;43.224;27.976;2023-04-30T12:54:27;100066.94;;;16.40;54.10
5966;BME280;3009;43.224;27.976;2023-04-30T12:57:00;100073.56;;;16.62;51.74
5966;BME280;3009;43.224;27.976;2023-04-30T12:59:32;100069.28;;;16.61;53.08
5966;BME280;3009;43.224;27.976;2023-04-30T13:02:07;100071.28;;;16.64;53.31
5966;BME280;3009;43.224;27.976;2023-04-30T13:04:36;100055.56;;;16.70;53.46
5966;BME280;3009;43.224;27.976;2023-04-30T13:07:04;100064.28;;;16.63;53.51
5966;BME280;3009;43.224;27.976;2023-04-30T13:09:34;100055.25;;;16.36;51.85
5966;BME280;3009;43.224;27.976;2023-04-30T13:12:03;100055.13;;;16.29;51.68
5966;BME280;3009;43.224;27.976;2023-04-30T13:14:33;100048.63;;;16.34;48.17
5966;BME280;3009;43.224;27.976;2023-04-30T13:17:02;100046.31;;;16.52;50.28
5966;BME280;3009;43.224;27.976;2023-04-30T13:19:32;100055.69;;;16.38;50.03